Terminal Aerodrome Forecast
Issued by NWS

Home | Current Version | Previous Version | Text Only | Print | Product List | Glossary On
Versions: 1 2 3 4 5 6 7 8 9 10 11 12 13 14 15 16 17 18
012
FTUS46 KEKA 292329
TAFCEC
TAF
KCEC 292329Z 3000/3024 VRB06KT P6SM OVC008
     FM300300 VRB03KT 4SM BR OVC005
     FM300800 VRB03KT 1SM BR OVC002
     FM301700 20006KT P6SM OVC008=

USA.gov is the U.S. government's official web portal to all federal, state and local government web resources and services.